sensor_id;sensor_type;location;lat;lon;timestamp;P1;durP1;ratioP1;P2;durP2;ratioP2
19619;SDS011;9957;52.282;21.110;2023-03-14T00:01:23;16.40;;;6.65;;
19619;SDS011;9957;52.282;21.110;2023-03-14T00:03:49;16.85;;;6.35;;
19619;SDS011;9957;52.282;21.110;2023-03-14T00:06:15;14.55;;;6.38;;
19619;SDS011;9957;52.282;21.110;2023-03-14T00:08:42;19.02;;;7.00;;
19619;SDS011;9957;52.282;21.110;2023-03-14T00:11:10;30.42;;;10.32;;
19619;SDS011;9957;52.282;21.110;2023-03-14T00:13:36;16.52;;;6.75;;
19619;SDS011;9957;52.282;21.110;2023-03-14T00:16:04;23.05;;;7.65;;
19619;SDS011;9957;52.282;21.110;2023-03-14T00:18:30;17.73;;;6.95;;
19619;SDS011;9957;52.282;21.110;2023-03-14T00:20:59;17.27;;;6.88;;
19619;SDS011;9957;52.282;21.110;2023-03-14T00:23:26;19.05;;;7.32;;
19619;SDS011;9957;52.282;21.110;2023-03-14T00:25:53;18.40;;;6.90;;
19619;SDS011;9957;52.282;21.110;2023-03-14T00:28:19;15.30;;;7.10;;
19619;SDS011;9957;52.282;21.110;2023-03-14T00:30:45;17.83;;;7.00;;
19619;SDS011;9957;52.282;21.110;2023-03-14T00:33:11;17.48;;;7.35;;
19619;SDS011;9957;52.282;21.110;2023-03-14T00:35:37;19.25;;;7.05;;
19619;SDS011;9957;52.282;21.110;2023-03-14T00:38:03;16.17;;;7.00;;
19619;SDS011;9957;52.282;21.110;2023-03-14T00:40:29;18.60;;;6.93;;
19619;SDS011;9957;52.282;21.110;2023-03-14T00:42:55;16.55;;;6.53;;
19619;SDS011;9957;52.282;21.110;2023-03-14T00:45:21;17.17;;;6.90;;
19619;SDS011;9957;52.282;21.110;2023-03-14T00:47:47;18.07;;;6.93;;
19619;SDS011;9957;52.282;21.110;2023-03-14T00:50:13;16.77;;;6.57;;
19619;SDS011;9957;52.282;21.110;2023-03-14T00:52:39;14.85;;;6.20;;
19619;SDS011;9957;52.282;21.110;2023-03-14T00:55:05;13.93;;;6.20;;
19619;SDS011;9957;52.282;21.110;2023-03-14T00:57:31;16.02;;;6.60;;
19619;SDS011;9957;52.282;21.110;2023-03-14T00:59:57;16.10;;;6.50;;
19619;SDS011;9957;52.282;21.110;2023-03-14T01:02:23;15.15;;;6.43;;
19619;SDS011;9957;52.282;21.110;2023-03-14T01:04:49;16.35;;;6.38;;
19619;SDS011;9957;52.282;21.110;2023-03-14T01:07:16;16.77;;;6.70;;
19619;SDS011;9957;52.282;21.110;2023-03-14T01:09:42;17.52;;;6.57;;
19619;SDS011;9957;52.282;21.110;2023-03-14T01:12:08;14.50;;;6.47;;
19619;SDS011;9957;52.282;21.110;2023-03-14T01:14:34;13.52;;;6.10;;
19619;SDS011;9957;52.282;21.110;2023-03-14T01:17:00;12.73;;;6.07;;
19619;SDS011;9957;52.282;21.110;2023-03-14T01:19:28;13.73;;;6.10;;
19619;SDS011;9957;52.282;21.110;2023-03-14T01:21:54;13.70;;;6.10;;
19619;SDS011;9957;52.282;21.110;2023-03-14T01:24:20;14.97;;;6.40;;
19619;SDS011;9957;52.282;21.110;2023-03-14T01:26:46;13.95;;;6.30;;
19619;SDS011;9957;52.282;21.110;2023-03-14T01:29:12;22.90;;;6.40;;
19619;SDS011;9957;52.282;21.110;2023-03-14T01:31:38;17.38;;;6.30;;
19619;SDS011;9957;52.282;21.110;2023-03-14T01:34:04;16.20;;;6.10;;
19619;SDS011;9957;52.282;21.110;2023-03-14T01:36:30;15.52;;;6.20;;
19619;SDS011;9957;52.282;21.110;2023-03-14T01:39:11;14.60;;;6.00;;
19619;SDS011;9957;52.282;21.110;2023-03-14T01:44:54;14.02;;;6.20;;
19619;SDS011;9957;52.282;21.110;2023-03-14T01:47:21;14.88;;;5.88;;
19619;SDS011;9957;52.282;21.110;2023-03-14T01:49:49;13.50;;;5.65;;
19619;SDS011;9957;52.282;21.110;2023-03-14T01:52:19;13.57;;;6.10;;
19619;SDS011;9957;52.282;21.110;2023-03-14T01:54:58;14.25;;;5.97;;
19619;SDS011;9957;52.282;21.110;2023-03-14T02:03:36;13.50;;;5.88;;
19619;SDS011;9957;52.282;21.110;2023-03-14T02:06:04;11.77;;;5.60;;
19619;SDS011;9957;52.282;21.110;2023-03-14T02:08:32;15.43;;;5.95;;
19619;SDS011;9957;52.282;21.110;2023-03-14T02:10:59;16.00;;;5.78;;
19619;SDS011;9957;52.282;21.110;2023-03-14T02:13:25;13.60;;;5.70;;
19619;SDS011;9957;52.282;21.110;2023-03-14T02:15:51;16.33;;;6.05;;
19619;SDS011;9957;52.282;21.110;2023-03-14T02:18:17;12.98;;;5.90;;
19619;SDS011;9957;52.282;21.110;2023-03-14T02:21:28;16.27;;;5.75;;
19619;SDS011;9957;52.282;21.110;2023-03-14T02:26:08;14.98;;;5.63;;
19619;SDS011;9957;52.282;21.110;2023-03-14T02:28:35;15.13;;;5.33;;
19619;SDS011;9957;52.282;21.110;2023-03-14T02:31:01;13.30;;;5.38;;
19619;SDS011;9957;52.282;21.110;2023-03-14T02:33:28;13.70;;;5.30;;
19619;SDS011;9957;52.282;21.110;2023-03-14T02:36:01;14.13;;;5.40;;
19619;SDS011;9957;52.282;21.110;2023-03-14T02:38:33;13.43;;;5.60;;
19619;SDS011;9957;52.282;21.110;2023-03-14T02:41:02;13.43;;;5.13;;
19619;SDS011;9957;52.282;21.110;2023-03-14T02:43:28;13.90;;;5.25;;
19619;SDS011;9957;52.282;21.110;2023-03-14T02:45:54;11.77;;;5.33;;
19619;SDS011;9957;52.282;21.110;2023-03-14T02:48:21;14.68;;;5.75;;
19619;SDS011;9957;52.282;21.110;2023-03-14T02:50:48;14.53;;;5.97;;
19619;SDS011;9957;52.282;21.110;2023-03-14T02:53:16;17.30;;;5.75;;
19619;SDS011;9957;52.282;21.110;2023-03-14T02:55:46;15.50;;;6.05;;
19619;SDS011;9957;52.282;21.110;2023-03-14T02:58:13;13.13;;;5.80;;
19619;SDS011;9957;52.282;21.110;2023-03-14T03:00:39;15.88;;;5.80;;
19619;SDS011;9957;52.282;21.110;2023-03-14T03:03:05;15.55;;;6.03;;
19619;SDS011;9957;52.282;21.110;2023-03-14T03:05:31;13.98;;;6.10;;
19619;SDS011;9957;52.282;21.110;2023-03-14T03:07:58;14.57;;;5.40;;
19619;SDS011;9957;52.282;21.110;2023-03-14T03:10:24;13.00;;;5.30;;
19619;SDS011;9957;52.282;21.110;2023-03-14T03:12:50;12.50;;;5.30;;
19619;SDS011;9957;52.282;21.110;2023-03-14T03:15:16;11.70;;;5.47;;
19619;SDS011;9957;52.282;21.110;2023-03-14T03:17:42;13.00;;;5.47;;
19619;SDS011;9957;52.282;21.110;2023-03-14T03:20:08;12.18;;;5.65;;
19619;SDS011;9957;52.282;21.110;2023-03-14T03:22:35;12.60;;;5.47;;
19619;SDS011;9957;52.282;21.110;2023-03-14T03:25:02;9.82;;;5.15;;
19619;SDS011;9957;52.282;21.110;2023-03-14T03:27:29;14.15;;;5.45;;
19619;SDS011;9957;52.282;21.110;2023-03-14T03:29:56;12.95;;;5.50;;
19619;SDS011;9957;52.282;21.110;2023-03-14T03:32:23;14.63;;;5.75;;
19619;SDS011;9957;52.282;21.110;2023-03-14T03:34:49;15.43;;;5.47;;
19619;SDS011;9957;52.282;21.110;2023-03-14T03:37:15;14.57;;;5.43;;
19619;SDS011;9957;52.282;21.110;2023-03-14T03:39:41;12.10;;;4.95;;
19619;SDS011;9957;52.282;21.110;2023-03-14T03:42:07;11.65;;;5.47;;
19619;SDS011;9957;52.282;21.110;2023-03-14T03:44:33;16.93;;;5.87;;
19619;SDS011;9957;52.282;21.110;2023-03-14T03:46:59;11.32;;;5.20;;
19619;SDS011;9957;52.282;21.110;2023-03-14T03:49:28;13.52;;;5.30;;
19619;SDS011;9957;52.282;21.110;2023-03-14T03:51:54;13.77;;;5.10;;
19619;SDS011;9957;52.282;21.110;2023-03-14T03:54:20;10.65;;;4.95;;
19619;SDS011;9957;52.282;21.110;2023-03-14T03:56:46;14.77;;;5.25;;
19619;SDS011;9957;52.282;21.110;2023-03-14T03:59:12;15.73;;;5.10;;
19619;SDS011;9957;52.282;21.110;2023-03-14T04:01:39;13.88;;;5.03;;
19619;SDS011;9957;52.282;21.110;2023-03-14T04:04:05;14.50;;;5.70;;
19619;SDS011;9957;52.282;21.110;2023-03-14T04:06:31;15.07;;;5.50;;
19619;SDS011;9957;52.282;21.110;2023-03-14T04:08:58;12.50;;;4.82;;
19619;SDS011;9957;52.282;21.110;2023-03-14T04:11:24;9.77;;;4.68;;
19619;SDS011;9957;52.282;21.110;2023-03-14T04:13:50;12.18;;;4.72;;
19619;SDS011;9957;52.282;21.110;2023-03-14T04:16:17;12.13;;;5.00;;
19619;SDS011;9957;52.282;21.110;2023-03-14T04:18:43;11.23;;;4.85;;
19619;SDS011;9957;52.282;21.110;2023-03-14T04:21:09;14.13;;;5.03;;
19619;SDS011;9957;52.282;21.110;2023-03-14T04:23:35;14.97;;;5.50;;
19619;SDS011;9957;52.282;21.110;2023-03-14T04:26:01;12.15;;;4.93;;
19619;SDS011;9957;52.282;21.110;2023-03-14T04:28:28;15.10;;;5.30;;
19619;SDS011;9957;52.282;21.110;2023-03-14T04:30:54;14.30;;;4.90;;
19619;SDS011;9957;52.282;21.110;2023-03-14T04:33:20;13.50;;;4.88;;
19619;SDS011;9957;52.282;21.110;2023-03-14T04:35:46;12.02;;;4.93;;
19619;SDS011;9957;52.282;21.110;2023-03-14T04:38:12;14.10;;;5.13;;
19619;SDS011;9957;52.282;21.110;2023-03-14T04:40:39;14.23;;;5.15;;
19619;SDS011;9957;52.282;21.110;2023-03-14T04:43:06;13.07;;;5.10;;
19619;SDS011;9957;52.282;21.110;2023-03-14T04:45:32;15.55;;;5.10;;
19619;SDS011;9957;52.282;21.110;2023-03-14T04:47:58;12.07;;;4.60;;
19619;SDS011;9957;52.282;21.110;2023-03-14T04:50:24;10.57;;;4.70;;
19619;SDS011;9957;52.282;21.110;2023-03-14T04:52:50;10.05;;;4.70;;
19619;SDS011;9957;52.282;21.110;2023-03-14T04:55:16;11.82;;;4.90;;
19619;SDS011;9957;52.282;21.110;2023-03-14T04:57:42;10.70;;;4.80;;
19619;SDS011;9957;52.282;21.110;2023-03-14T05:00:08;13.40;;;4.93;;
19619;SDS011;9957;52.282;21.110;2023-03-14T05:02:35;12.98;;;5.30;;
19619;SDS011;9957;52.282;21.110;2023-03-14T05:05:01;13.37;;;4.40;;
19619;SDS011;9957;52.282;21.110;2023-03-14T05:07:27;12.90;;;5.15;;
19619;SDS011;9957;52.282;21.110;2023-03-14T05:09:53;10.05;;;4.72;;
19619;SDS011;9957;52.282;21.110;2023-03-14T05:12:19;12.32;;;4.65;;
19619;SDS011;9957;52.282;21.110;2023-03-14T05:14:46;10.05;;;4.40;;
19619;SDS011;9957;52.282;21.110;2023-03-14T05:17:12;10.93;;;4.90;;
19619;SDS011;9957;52.282;21.110;2023-03-14T05:19:39;13.35;;;4.75;;
19619;SDS011;9957;52.282;21.110;2023-03-14T05:22:06;11.20;;;5.25;;
19619;SDS011;9957;52.282;21.110;2023-03-14T05:24:32;11.43;;;4.90;;
19619;SDS011;9957;52.282;21.110;2023-03-14T05:26:58;10.40;;;4.70;;
19619;SDS011;9957;52.282;21.110;2023-03-14T05:29:24;17.33;;;5.05;;
19619;SDS011;9957;52.282;21.110;2023-03-14T05:31:50;10.05;;;4.78;;
19619;SDS011;9957;52.282;21.110;2023-03-14T05:34:16;11.50;;;5.00;;
19619;SDS011;9957;52.282;21.110;2023-03-14T05:36:42;10.25;;;4.55;;
19619;SDS011;9957;52.282;21.110;2023-03-14T05:39:08;11.73;;;4.80;;
19619;SDS011;9957;52.282;21.110;2023-03-14T05:41:34;15.30;;;4.80;;
19619;SDS011;9957;52.282;21.110;2023-03-14T05:44:00;11.52;;;4.78;;
19619;SDS011;9957;52.282;21.110;2023-03-14T05:46:26;14.13;;;4.75;;
19619;SDS011;9957;52.282;21.110;2023-03-14T05:48:54;10.40;;;4.50;;
19619;SDS011;9957;52.282;21.110;2023-03-14T05:51:20;10.55;;;4.40;;
19619;SDS011;9957;52.282;21.110;2023-03-14T05:53:46;10.13;;;4.47;;
19619;SDS011;9957;52.282;21.110;2023-03-14T05:56:12;10.48;;;4.85;;
19619;SDS011;9957;52.282;21.110;2023-03-14T05:58:38;10.70;;;4.60;;
19619;SDS011;9957;52.282;21.110;2023-03-14T06:01:04;9.80;;;5.00;;
19619;SDS011;9957;52.282;21.110;2023-03-14T06:03:31;13.02;;;4.68;;
19619;SDS011;9957;52.282;21.110;2023-03-14T06:05:57;15.23;;;4.80;;
19619;SDS011;9957;52.282;21.110;2023-03-14T06:08:23;9.60;;;4.60;;
19619;SDS011;9957;52.282;21.110;2023-03-14T06:10:50;14.25;;;5.30;;
19619;SDS011;9957;52.282;21.110;2023-03-14T06:13:16;9.68;;;4.38;;
19619;SDS011;9957;52.282;21.110;2023-03-14T06:15:42;11.63;;;4.30;;
19619;SDS011;9957;52.282;21.110;2023-03-14T06:18:08;13.93;;;4.77;;
19619;SDS011;9957;52.282;21.110;2023-03-14T06:20:38;10.13;;;4.40;;
19619;SDS011;9957;52.282;21.110;2023-03-14T06:23:05;9.75;;;4.30;;
19619;SDS011;9957;52.282;21.110;2023-03-14T06:25:31;10.97;;;4.70;;
19619;SDS011;9957;52.282;21.110;2023-03-14T06:27:57;10.27;;;5.00;;
19619;SDS011;9957;52.282;21.110;2023-03-14T06:30:24;12.00;;;4.55;;
19619;SDS011;9957;52.282;21.110;2023-03-14T06:32:50;19.73;;;5.07;;
19619;SDS011;9957;52.282;21.110;2023-03-14T06:35:16;11.32;;;4.93;;
19619;SDS011;9957;52.282;21.110;2023-03-14T06:37:42;9.70;;;4.70;;
19619;SDS011;9957;52.282;21.110;2023-03-14T06:40:09;13.27;;;4.88;;
19619;SDS011;9957;52.282;21.110;2023-03-14T06:42:35;11.02;;;4.35;;
19619;SDS011;9957;52.282;21.110;2023-03-14T06:45:01;12.43;;;4.75;;
19619;SDS011;9957;52.282;21.110;2023-03-14T06:47:28;12.85;;;4.45;;
19619;SDS011;9957;52.282;21.110;2023-03-14T06:49:54;13.93;;;4.43;;
19619;SDS011;9957;52.282;21.110;2023-03-14T06:52:20;12.85;;;4.40;;
19619;SDS011;9957;52.282;21.110;2023-03-14T06:54:46;11.90;;;4.45;;
19619;SDS011;9957;52.282;21.110;2023-03-14T06:57:12;15.88;;;4.60;;
19619;SDS011;9957;52.282;21.110;2023-03-14T06:59:38;11.65;;;4.55;;
19619;SDS011;9957;52.282;21.110;2023-03-14T07:02:04;16.80;;;4.68;;
19619;SDS011;9957;52.282;21.110;2023-03-14T07:04:30;12.35;;;4.20;;
19619;SDS011;9957;52.282;21.110;2023-03-14T07:06:56;16.10;;;4.93;;
19619;SDS011;9957;52.282;21.110;2023-03-14T07:09:22;14.35;;;5.50;;
19619;SDS011;9957;52.282;21.110;2023-03-14T07:11:48;14.83;;;4.33;;
19619;SDS011;9957;52.282;21.110;2023-03-14T07:14:14;11.68;;;4.90;;
19619;SDS011;9957;52.282;21.110;2023-03-14T07:16:40;13.68;;;5.80;;
19619;SDS011;9957;52.282;21.110;2023-03-14T07:19:19;12.15;;;4.50;;
19619;SDS011;9957;52.282;21.110;2023-03-14T07:21:51;12.18;;;4.70;;
19619;SDS011;9957;52.282;21.110;2023-03-14T07:24:30;12.43;;;4.63;;
19619;SDS011;9957;52.282;21.110;2023-03-14T07:27:12;13.23;;;4.40;;
19619;SDS011;9957;52.282;21.110;2023-03-14T07:29:38;11.55;;;4.65;;
19619;SDS011;9957;52.282;21.110;2023-03-14T07:32:04;9.35;;;4.38;;
19619;SDS011;9957;52.282;21.110;2023-03-14T07:34:37;18.70;;;4.60;;
19619;SDS011;9957;52.282;21.110;2023-03-14T07:37:29;10.65;;;4.40;;
19619;SDS011;9957;52.282;21.110;2023-03-14T07:40:11;13.27;;;4.60;;
19619;SDS011;9957;52.282;21.110;2023-03-14T07:42:40;18.25;;;4.72;;
19619;SDS011;9957;52.282;21.110;2023-03-14T07:45:06;10.75;;;4.72;;
19619;SDS011;9957;52.282;21.110;2023-03-14T07:47:32;9.68;;;4.38;;
19619;SDS011;9957;52.282;21.110;2023-03-14T07:49:58;11.20;;;4.50;;
19619;SDS011;9957;52.282;21.110;2023-03-14T07:52:24;9.38;;;4.53;;
19619;SDS011;9957;52.282;21.110;2023-03-14T07:54:51;9.70;;;4.30;;
19619;SDS011;9957;52.282;21.110;2023-03-14T07:57:17;14.50;;;4.40;;
19619;SDS011;9957;52.282;21.110;2023-03-14T07:59:43;10.40;;;4.47;;
19619;SDS011;9957;52.282;21.110;2023-03-14T08:02:12;13.55;;;4.97;;
19619;SDS011;9957;52.282;21.110;2023-03-14T08:04:38;10.35;;;4.25;;
19619;SDS011;9957;52.282;21.110;2023-03-14T08:07:04;15.38;;;4.95;;
19619;SDS011;9957;52.282;21.110;2023-03-14T08:09:31;10.20;;;4.60;;
19619;SDS011;9957;52.282;21.110;2023-03-14T08:11:57;16.65;;;5.00;;
19619;SDS011;9957;52.282;21.110;2023-03-14T08:14:23;19.08;;;5.00;;
19619;SDS011;9957;52.282;21.110;2023-03-14T08:16:49;28.40;;;5.15;;
19619;SDS011;9957;52.282;21.110;2023-03-14T08:19:15;24.00;;;4.90;;
19619;SDS011;9957;52.282;21.110;2023-03-14T08:21:41;32.17;;;6.63;;
19619;SDS011;9957;52.282;21.110;2023-03-14T08:24:07;33.33;;;6.22;;
19619;SDS011;9957;52.282;21.110;2023-03-14T08:26:33;20.75;;;4.78;;
19619;SDS011;9957;52.282;21.110;2023-03-14T08:28:59;22.40;;;4.70;;
19619;SDS011;9957;52.282;21.110;2023-03-14T08:31:26;19.92;;;4.53;;
19619;SDS011;9957;52.282;21.110;2023-03-14T08:33:52;20.50;;;5.22;;
19619;SDS011;9957;52.282;21.110;2023-03-14T08:36:18;15.07;;;3.95;;
19619;SDS011;9957;52.282;21.110;2023-03-14T08:38:45;17.77;;;5.05;;
19619;SDS011;9957;52.282;21.110;2023-03-14T08:41:11;15.20;;;4.10;;
19619;SDS011;9957;52.282;21.110;2023-03-14T08:43:37;14.13;;;3.83;;
19619;SDS011;9957;52.282;21.110;2023-03-14T08:46:03;14.77;;;4.38;;
19619;SDS011;9957;52.282;21.110;2023-03-14T08:48:29;10.43;;;3.90;;
19619;SDS011;9957;52.282;21.110;2023-03-14T08:51:01;45.35;;;7.43;;
19619;SDS011;9957;52.282;21.110;2023-03-14T08:53:29;11.25;;;3.83;;
19619;SDS011;9957;52.282;21.110;2023-03-14T08:55:55;10.67;;;3.80;;
19619;SDS011;9957;52.282;21.110;2023-03-14T08:58:22;13.47;;;4.27;;
19619;SDS011;9957;52.282;21.110;2023-03-14T09:00:49;12.07;;;3.85;;
19619;SDS011;9957;52.282;21.110;2023-03-14T09:03:15;15.30;;;3.80;;
19619;SDS011;9957;52.282;21.110;2023-03-14T09:05:41;17.23;;;3.97;;
19619;SDS011;9957;52.282;21.110;2023-03-14T09:08:07;10.77;;;3.97;;
19619;SDS011;9957;52.282;21.110;2023-03-14T09:10:33;8.60;;;3.80;;
19619;SDS011;9957;52.282;21.110;2023-03-14T09:12:59;10.05;;;3.72;;
19619;SDS011;9957;52.282;21.110;2023-03-14T09:15:25;13.05;;;3.75;;
19619;SDS011;9957;52.282;21.110;2023-03-14T09:17:51;8.25;;;3.60;;
19619;SDS011;9957;52.282;21.110;2023-03-14T09:20:17;8.23;;;3.90;;
19619;SDS011;9957;52.282;21.110;2023-03-14T09:22:43;16.10;;;4.53;;
19619;SDS011;9957;52.282;21.110;2023-03-14T09:25:09;9.60;;;3.60;;
19619;SDS011;9957;52.282;21.110;2023-03-14T09:27:36;8.93;;;3.90;;
19619;SDS011;9957;52.282;21.110;2023-03-14T09:30:02;8.40;;;3.63;;
19619;SDS011;9957;52.282;21.110;2023-03-14T09:32:29;10.05;;;3.60;;
19619;SDS011;9957;52.282;21.110;2023-03-14T09:34:56;19.17;;;4.28;;
19619;SDS011;9957;52.282;21.110;2023-03-14T09:37:22;15.10;;;4.00;;
19619;SDS011;9957;52.282;21.110;2023-03-14T09:39:48;14.30;;;3.90;;
19619;SDS011;9957;52.282;21.110;2023-03-14T09:42:16;10.90;;;3.80;;
19619;SDS011;9957;52.282;21.110;2023-03-14T09:45:02;16.25;;;3.92;;
19619;SDS011;9957;52.282;21.110;2023-03-14T09:47:32;16.33;;;4.83;;
19619;SDS011;9957;52.282;21.110;2023-03-14T09:49:59;9.27;;;3.57;;
19619;SDS011;9957;52.282;21.110;2023-03-14T09:52:32;7.70;;;3.60;;
19619;SDS011;9957;52.282;21.110;2023-03-14T09:55:03;15.27;;;4.32;;
19619;SDS011;9957;52.282;21.110;2023-03-14T09:57:30;18.03;;;3.70;;
19619;SDS011;9957;52.282;21.110;2023-03-14T10:00:00;6.30;;;3.22;;
19619;SDS011;9957;52.282;21.110;2023-03-14T10:02:35;18.25;;;4.13;;
19619;SDS011;9957;52.282;21.110;2023-03-14T10:05:01;8.40;;;3.20;;
19619;SDS011;9957;52.282;21.110;2023-03-14T10:07:31;8.23;;;3.10;;
19619;SDS011;9957;52.282;21.110;2023-03-14T10:09:58;5.87;;;2.80;;
19619;SDS011;9957;52.282;21.110;2023-03-14T10:12:35;10.20;;;2.80;;
19619;SDS011;9957;52.282;21.110;2023-03-14T10:15:06;9.10;;;2.87;;
19619;SDS011;9957;52.282;21.110;2023-03-14T10:17:54;8.80;;;3.00;;
19619;SDS011;9957;52.282;21.110;2023-03-14T10:20:33;6.20;;;2.77;;
19619;SDS011;9957;52.282;21.110;2023-03-14T10:23:01;8.83;;;2.83;;
19619;SDS011;9957;52.282;21.110;2023-03-14T10:25:29;11.70;;;3.50;;
19619;SDS011;9957;52.282;21.110;2023-03-14T10:27:55;9.38;;;3.50;;
19619;SDS011;9957;52.282;21.110;2023-03-14T10:30:43;11.07;;;3.63;;
19619;SDS011;9957;52.282;21.110;2023-03-14T10:33:10;9.17;;;3.17;;
19619;SDS011;9957;52.282;21.110;2023-03-14T10:35:36;7.45;;;3.47;;
19619;SDS011;9957;52.282;21.110;2023-03-14T10:38:03;8.07;;;3.30;;
19619;SDS011;9957;52.282;21.110;2023-03-14T10:40:30;11.32;;;3.22;;
19619;SDS011;9957;52.282;21.110;2023-03-14T10:43:00;6.60;;;3.22;;
19619;SDS011;9957;52.282;21.110;2023-03-14T10:45:39;14.57;;;3.38;;
19619;SDS011;9957;52.282;21.110;2023-03-14T10:50:55;10.05;;;3.15;;
19619;SDS011;9957;52.282;21.110;2023-03-14T10:53:21;8.05;;;3.10;;
19619;SDS011;9957;52.282;21.110;2023-03-14T10:55:47;10.18;;;3.22;;
19619;SDS011;9957;52.282;21.110;2023-03-14T10:58:56;9.45;;;3.22;;
19619;SDS011;9957;52.282;21.110;2023-03-14T11:06:52;6.35;;;3.10;;
19619;SDS011;9957;52.282;21.110;2023-03-14T11:09:30;8.32;;;3.25;;
19619;SDS011;9957;52.282;21.110;2023-03-14T11:12:00;16.35;;;3.53;;
19619;SDS011;9957;52.282;21.110;2023-03-14T11:14:31;11.47;;;3.20;;
19619;SDS011;9957;52.282;21.110;2023-03-14T11:17:08;12.93;;;3.40;;
19619;SDS011;9957;52.282;21.110;2023-03-14T11:24:41;9.43;;;3.40;;
19619;SDS011;9957;52.282;21.110;2023-03-14T11:29:39;6.25;;;3.10;;
19619;SDS011;9957;52.282;21.110;2023-03-14T11:34:53;6.72;;;3.10;;
19619;SDS011;9957;52.282;21.110;2023-03-14T11:37:36;13.47;;;3.10;;
19619;SDS011;9957;52.282;21.110;2023-03-14T11:40:08;11.67;;;3.60;;
19619;SDS011;9957;52.282;21.110;2023-03-14T11:42:38;16.48;;;3.38;;
19619;SDS011;9957;52.282;21.110;2023-03-14T11:45:10;9.23;;;3.38;;
19619;SDS011;9957;52.282;21.110;2023-03-14T11:47:40;9.43;;;3.77;;
19619;SDS011;9957;52.282;21.110;2023-03-14T11:50:21;9.52;;;3.50;;
19619;SDS011;9957;52.282;21.110;2023-03-14T11:55:26;11.48;;;3.25;;
19619;SDS011;9957;52.282;21.110;2023-03-14T11:57:55;19.02;;;3.70;;
19619;SDS011;9957;52.282;21.110;2023-03-14T12:00:22;13.85;;;3.50;;
19619;SDS011;9957;52.282;21.110;2023-03-14T12:10:38;15.98;;;3.92;;
19619;SDS011;9957;52.282;21.110;2023-03-14T12:13:07;13.57;;;3.83;;
19619;SDS011;9957;52.282;21.110;2023-03-14T12:15:36;10.10;;;4.10;;
19619;SDS011;9957;52.282;21.110;2023-03-14T12:18:11;18.73;;;3.97;;
19619;SDS011;9957;52.282;21.110;2023-03-14T12:20:39;13.38;;;3.50;;
19619;SDS011;9957;52.282;21.110;2023-03-14T12:23:05;9.00;;;3.88;;
19619;SDS011;9957;52.282;21.110;2023-03-14T12:25:35;12.25;;;3.90;;
19619;SDS011;9957;52.282;21.110;2023-03-14T12:28:03;8.05;;;3.60;;
19619;SDS011;9957;52.282;21.110;2023-03-14T12:30:37;15.35;;;5.20;;
19619;SDS011;9957;52.282;21.110;2023-03-14T12:35:36;17.17;;;6.57;;
19619;SDS011;9957;52.282;21.110;2023-03-14T12:38:12;11.02;;;3.95;;
19619;SDS011;9957;52.282;21.110;2023-03-14T12:40:39;11.45;;;4.03;;
19619;SDS011;9957;52.282;21.110;2023-03-14T12:43:23;11.87;;;3.73;;
19619;SDS011;9957;52.282;21.110;2023-03-14T12:46:32;18.05;;;7.18;;
19619;SDS011;9957;52.282;21.110;2023-03-14T12:48:40;19.27;;;4.38;;
19619;SDS011;9957;52.282;21.110;2023-03-14T12:51:13;16.60;;;4.72;;
19619;SDS011;9957;52.282;21.110;2023-03-14T12:56:18;14.57;;;6.03;;
19619;SDS011;9957;52.282;21.110;2023-03-14T12:59:02;50.50;;;16.80;;
19619;SDS011;9957;52.282;21.110;2023-03-14T13:01:32;24.65;;;6.97;;
19619;SDS011;9957;52.282;21.110;2023-03-14T13:04:02;11.90;;;4.90;;
19619;SDS011;9957;52.282;21.110;2023-03-14T13:12:03;12.90;;;5.20;;
19619;SDS011;9957;52.282;21.110;2023-03-14T13:14:33;31.07;;;6.30;;
19619;SDS011;9957;52.282;21.110;2023-03-14T13:16:59;11.63;;;5.18;;
19619;SDS011;9957;52.282;21.110;2023-03-14T13:19:29;16.10;;;7.00;;
19619;SDS011;9957;52.282;21.110;2023-03-14T13:22:02;15.45;;;5.10;;
19619;SDS011;9957;52.282;21.110;2023-03-14T13:24:28;14.50;;;6.15;;
19619;SDS011;9957;52.282;21.110;2023-03-14T13:26:56;16.38;;;5.88;;
19619;SDS011;9957;52.282;21.110;2023-03-14T13:29:32;13.73;;;5.68;;
19619;SDS011;9957;52.282;21.110;2023-03-14T13:31:59;13.38;;;5.03;;
19619;SDS011;9957;52.282;21.110;2023-03-14T13:34:29;14.00;;;5.20;;
19619;SDS011;9957;52.282;21.110;2023-03-14T13:36:55;11.98;;;4.90;;
19619;SDS011;9957;52.282;21.110;2023-03-14T13:39:23;12.23;;;5.10;;
19619;SDS011;9957;52.282;21.110;2023-03-14T13:41:54;13.13;;;5.70;;
19619;SDS011;9957;52.282;21.110;2023-03-14T13:44:31;13.85;;;5.30;;
19619;SDS011;9957;52.282;21.110;2023-03-14T13:47:01;13.60;;;4.90;;
19619;SDS011;9957;52.282;21.110;2023-03-14T13:49:28;12.27;;;5.60;;
19619;SDS011;9957;52.282;21.110;2023-03-14T13:51:57;14.53;;;5.47;;
19619;SDS011;9957;52.282;21.110;2023-03-14T13:54:25;14.75;;;5.63;;
19619;SDS011;9957;52.282;21.110;2023-03-14T13:57:01;17.45;;;5.47;;
19619;SDS011;9957;52.282;21.110;2023-03-14T13:59:30;14.77;;;5.78;;
19619;SDS011;9957;52.282;21.110;2023-03-14T14:01:57;19.92;;;8.75;;
19619;SDS011;9957;52.282;21.110;2023-03-14T14:04:25;90.55;;;27.63;;
19619;SDS011;9957;52.282;21.110;2023-03-14T14:06:55;19.23;;;7.38;;
19619;SDS011;9957;52.282;21.110;2023-03-14T14:17:37;14.13;;;5.93;;
19619;SDS011;9957;52.282;21.110;2023-03-14T14:20:05;12.65;;;6.07;;
19619;SDS011;9957;52.282;21.110;2023-03-14T14:22:31;14.40;;;6.38;;
19619;SDS011;9957;52.282;21.110;2023-03-14T14:24:58;21.48;;;6.85;;
19619;SDS011;9957;52.282;21.110;2023-03-14T14:27:29;16.15;;;6.20;;
19619;SDS011;9957;52.282;21.110;2023-03-14T14:30:06;30.05;;;8.10;;
19619;SDS011;9957;52.282;21.110;2023-03-14T14:32:39;21.33;;;7.22;;
19619;SDS011;9957;52.282;21.110;2023-03-14T14:35:06;21.77;;;7.38;;
19619;SDS011;9957;52.282;21.110;2023-03-14T14:37:42;20.88;;;7.15;;
19619;SDS011;9957;52.282;21.110;2023-03-14T14:40:21;20.93;;;7.33;;
19619;SDS011;9957;52.282;21.110;2023-03-14T14:42:48;17.55;;;6.95;;
19619;SDS011;9957;52.282;21.110;2023-03-14T14:45:18;25.92;;;6.82;;
19619;SDS011;9957;52.282;21.110;2023-03-14T14:47:55;39.37;;;13.10;;
19619;SDS011;9957;52.282;21.110;2023-03-14T14:52:56;27.90;;;9.05;;
19619;SDS011;9957;52.282;21.110;2023-03-14T14:55:22;47.88;;;17.80;;
19619;SDS011;9957;52.282;21.110;2023-03-14T14:57:52;105.97;;;38.80;;
19619;SDS011;9957;52.282;21.110;2023-03-14T15:00:22;92.47;;;35.35;;
19619;SDS011;9957;52.282;21.110;2023-03-14T15:02:50;25.60;;;9.65;;
19619;SDS011;9957;52.282;21.110;2023-03-14T15:05:21;38.63;;;8.75;;
19619;SDS011;9957;52.282;21.110;2023-03-14T15:07:47;25.20;;;10.52;;
19619;SDS011;9957;52.282;21.110;2023-03-14T15:10:17;35.83;;;15.80;;
19619;SDS011;9957;52.282;21.110;2023-03-14T15:12:52;14.25;;;5.88;;
19619;SDS011;9957;52.282;21.110;2023-03-14T15:15:31;16.02;;;6.45;;
19619;SDS011;9957;52.282;21.110;2023-03-14T15:18:15;13.98;;;6.47;;
19619;SDS011;9957;52.282;21.110;2023-03-14T15:21:12;13.65;;;6.15;;
19619;SDS011;9957;52.282;21.110;2023-03-14T15:23:38;14.73;;;6.20;;
19619;SDS011;9957;52.282;21.110;2023-03-14T15:29:24;15.37;;;5.90;;
19619;SDS011;9957;52.282;21.110;2023-03-14T15:31:50;14.60;;;6.47;;
19619;SDS011;9957;52.282;21.110;2023-03-14T15:34:16;21.55;;;5.78;;
19619;SDS011;9957;52.282;21.110;2023-03-14T15:36:42;14.93;;;6.65;;
19619;SDS011;9957;52.282;21.110;2023-03-14T15:39:09;16.02;;;7.22;;
19619;SDS011;9957;52.282;21.110;2023-03-14T15:41:36;19.73;;;8.07;;
19619;SDS011;9957;52.282;21.110;2023-03-14T15:44:02;31.13;;;11.05;;
19619;SDS011;9957;52.282;21.110;2023-03-14T15:46:29;20.98;;;10.10;;
19619;SDS011;9957;52.282;21.110;2023-03-14T15:48:55;22.13;;;8.10;;